createdAt,value
2022-10-18T00:00:08.503Z,10.90
2022-10-18T00:02:57.680Z,11.10
2022-10-18T00:05:24.223Z,21.40
2022-10-18T00:07:50.873Z,11.10
2022-10-18T00:10:18.441Z,12.20
2022-10-18T00:15:11.838Z,16.00
2022-10-18T00:17:39.110Z,9.40
2022-10-18T00:20:06.397Z,13.70
2022-10-18T00:22:38.533Z,11.10
2022-10-18T00:25:06.626Z,10.20
2022-10-18T00:27:34.012Z,10.20
2022-10-18T00:30:00.772Z,10.40
2022-10-18T00:32:27.411Z,10.40
2022-10-18T00:34:53.986Z,12.60
2022-10-18T00:37:20.713Z,10.10
2022-10-18T00:39:47.434Z,10.80
2022-10-18T00:42:19.353Z,11.00
2022-10-18T00:44:45.882Z,9.50
2022-10-18T00:47:15.744Z,10.20
2022-10-18T00:49:46.530Z,9.10
2022-10-18T00:52:17.913Z,9.70
2022-10-18T00:54:46.542Z,10.80
2022-10-18T00:57:13.749Z,13.10
2022-10-18T00:59:42.228Z,10.50
2022-10-18T01:02:09.063Z,9.80
2022-10-18T01:04:35.842Z,12.90
2022-10-18T01:07:21.469Z,14.80
2022-10-18T01:10:18.151Z,12.30
2022-10-18T01:13:25.729Z,19.20
2022-10-18T01:16:04.913Z,13.10
2022-10-18T01:18:41.012Z,16.00
2022-10-18T01:21:14.533Z,11.10
2022-10-18T01:24:08.666Z,10.20
2022-10-18T01:27:13.238Z,11.30
2022-10-18T01:29:58.268Z,12.30
2022-10-18T01:32:30.140Z,10.50
2022-10-18T01:35:01.051Z,8.40
2022-10-18T01:37:29.918Z,9.80
2022-10-18T01:39:59.290Z,13.40
2022-10-18T01:42:26.790Z,14.10
2022-10-18T01:44:54.329Z,12.50
2022-10-18T01:47:21.626Z,12.50
2022-10-18T01:49:48.339Z,12.10
2022-10-18T01:52:16.126Z,11.40
2022-10-18T01:54:49.786Z,10.90
2022-10-18T01:57:38.503Z,10.80
2022-10-18T02:00:18.876Z,10.80
2022-10-18T02:02:53.365Z,15.10
2022-10-18T02:05:35.460Z,15.30
2022-10-18T02:08:26.579Z,13.00
2022-10-18T02:11:08.887Z,9.90
2022-10-18T02:14:10.773Z,13.40
2022-10-18T02:16:43.053Z,10.10
2022-10-18T02:21:59.401Z,9.20
2022-10-18T02:24:33.966Z,13.50
2022-10-18T02:27:01.090Z,11.30
2022-10-18T02:29:29.057Z,12.30
2022-10-18T02:32:09.523Z,13.10
2022-10-18T02:34:54.875Z,12.10
2022-10-18T02:37:22.609Z,9.80
2022-10-18T02:39:51.031Z,10.80
2022-10-18T02:42:17.685Z,10.50
2022-10-18T02:44:44.378Z,9.00
2022-10-18T02:47:11.957Z,10.10
2022-10-18T02:49:38.625Z,8.00
2022-10-18T02:52:05.239Z,8.70
2022-10-18T02:54:31.953Z,7.80
2022-10-18T02:56:58.533Z,11.40
2022-10-18T02:59:25.138Z,9.30
2022-10-18T03:01:51.789Z,9.70
2022-10-18T03:04:18.670Z,9.00
2022-10-18T03:06:45.368Z,10.90
2022-10-18T03:09:12.073Z,8.90
2022-10-18T03:11:38.585Z,9.60
2022-10-18T03:14:05.245Z,10.50
2022-10-18T03:16:33.326Z,10.70
2022-10-18T03:19:00.006Z,15.50
2022-10-18T03:21:26.652Z,11.10
2022-10-18T03:23:53.124Z,18.70
2022-10-18T03:26:21.011Z,12.90
2022-10-18T03:28:47.767Z,12.50
2022-10-18T03:31:14.538Z,13.70
2022-10-18T03:33:41.205Z,14.80
2022-10-18T03:36:07.793Z,12.60
2022-10-18T03:38:34.449Z,15.50
2022-10-18T03:41:01.196Z,15.50
2022-10-18T03:43:27.791Z,18.50
2022-10-18T03:45:54.384Z,17.50
2022-10-18T03:48:20.900Z,20.40
2022-10-18T03:50:47.466Z,23.80
2022-10-18T03:53:14.199Z,32.80
2022-10-18T03:55:40.933Z,26.90
2022-10-18T03:58:07.625Z,40.70
2022-10-18T04:00:34.933Z,20.40
2022-10-18T04:03:01.541Z,26.70
2022-10-18T04:05:30.345Z,27.90
2022-10-18T04:07:57.873Z,21.20
2022-10-18T04:10:25.472Z,26.00
2022-10-18T04:12:52.209Z,18.70
2022-10-18T04:15:18.933Z,23.10
2022-10-18T04:17:45.957Z,10.20
2022-10-18T04:20:13.248Z,17.90
2022-10-18T04:22:40.486Z,19.10
2022-10-18T04:25:07.696Z,22.50
2022-10-18T04:27:35.610Z,24.30
2022-10-18T04:30:03.381Z,23.50
2022-10-18T04:32:30.294Z,17.20
2022-10-18T04:34:56.906Z,108.60
2022-10-18T04:37:23.566Z,20.70
2022-10-18T04:39:53.465Z,9.60
2022-10-18T04:42:21.408Z,20.30
2022-10-18T04:44:48.243Z,10.70
2022-10-18T04:47:15.682Z,13.90
2022-10-18T04:49:42.803Z,15.10
2022-10-18T04:52:09.624Z,16.10
2022-10-18T04:54:37.036Z,23.70
2022-10-18T04:57:03.722Z,22.90
2022-10-18T04:59:30.397Z,17.90
2022-10-18T05:01:57.141Z,16.40
2022-10-18T05:04:23.836Z,16.60
2022-10-18T05:06:50.401Z,16.90
2022-10-18T05:09:17.414Z,13.60
2022-10-18T05:11:43.928Z,13.60
2022-10-18T05:14:10.682Z,17.00
2022-10-18T05:16:37.328Z,18.40
2022-10-18T05:19:05.249Z,11.50
2022-10-18T05:21:32.721Z,17.70
2022-10-18T05:23:59.510Z,29.70
2022-10-18T05:26:26.141Z,20.10
2022-10-18T05:28:52.797Z,30.30
2022-10-18T05:31:19.648Z,29.40
2022-10-18T05:33:46.567Z,83.00
2022-10-18T05:36:13.580Z,26.30
2022-10-18T05:38:44.929Z,13.50
2022-10-18T05:41:12.177Z,20.20
2022-10-18T05:43:40.070Z,31.30
2022-10-18T05:46:11.872Z,18.50
2022-10-18T05:48:43.710Z,16.20
2022-10-18T05:51:11.112Z,25.90
2022-10-18T05:53:38.355Z,19.00
2022-10-18T05:56:06.491Z,17.80
2022-10-18T05:58:34.431Z,17.30
2022-10-18T06:01:01.893Z,21.80
2022-10-18T06:03:30.048Z,43.00
2022-10-18T06:06:08.472Z,14.60
2022-10-18T06:08:36.067Z,10.20
2022-10-18T06:11:08.065Z,21.20
2022-10-18T06:13:34.797Z,15.80
2022-10-18T06:16:01.572Z,13.80
2022-10-18T06:18:29.137Z,8.00
2022-10-18T06:20:58.260Z,20.90
2022-10-18T06:23:26.492Z,13.40
2022-10-18T06:25:53.694Z,16.70
2022-10-18T06:28:20.333Z,21.10
2022-10-18T06:30:47.101Z,13.60
2022-10-18T06:33:14.064Z,22.80
2022-10-18T06:35:40.909Z,17.50
2022-10-18T06:38:07.580Z,15.30
2022-10-18T06:40:37.396Z,20.60
2022-10-18T06:43:20.207Z,24.40
2022-10-18T06:45:49.629Z,21.20
2022-10-18T06:50:59.780Z,15.70
2022-10-18T06:53:29.681Z,12.10
2022-10-18T06:56:02.157Z,19.20
2022-10-18T06:58:30.411Z,19.60
2022-10-18T07:00:57.955Z,22.00
2022-10-18T07:03:25.745Z,22.60
2022-10-18T07:05:52.420Z,25.00
2022-10-18T07:08:18.972Z,30.90
2022-10-18T07:10:53.150Z,25.00
2022-10-18T07:13:32.121Z,17.30
2022-10-18T07:16:05.332Z,16.30
2022-10-18T07:18:34.057Z,17.80
2022-10-18T07:23:34.575Z,27.70
2022-10-18T07:26:03.655Z,29.60
2022-10-18T07:28:30.645Z,20.20
2022-10-18T07:30:59.417Z,13.20
2022-10-18T07:33:28.914Z,13.20
2022-10-18T07:35:55.646Z,23.60
2022-10-18T07:38:23.138Z,15.10
2022-10-18T07:40:56.987Z,23.80
2022-10-18T07:43:24.210Z,14.70
2022-10-18T07:45:56.228Z,12.90
2022-10-18T07:48:24.297Z,25.20
2022-10-18T07:50:51.623Z,23.30
2022-10-18T07:53:18.373Z,12.00
2022-10-18T07:55:45.193Z,16.10
2022-10-18T07:58:12.361Z,28.60
2022-10-18T08:00:39.878Z,16.50
2022-10-18T08:03:06.467Z,15.50
2022-10-18T08:08:07.969Z,12.40
2022-10-18T08:10:35.578Z,10.10
2022-10-18T08:13:02.409Z,8.90
2022-10-18T08:15:29.357Z,134.30
2022-10-18T08:17:56.234Z,17.90
2022-10-18T08:20:31.348Z,14.80
2022-10-18T08:23:00.284Z,10.60
2022-10-18T08:25:30.024Z,8.80
2022-10-18T08:27:57.287Z,7.70
2022-10-18T08:30:24.096Z,9.90
2022-10-18T08:32:50.633Z,9.20
2022-10-18T08:35:17.349Z,9.20
2022-10-18T08:37:44.864Z,11.10
2022-10-18T08:40:15.281Z,14.80
2022-10-18T08:42:57.658Z,13.10
2022-10-18T08:45:41.027Z,20.90
2022-10-18T08:48:38.836Z,8.90
2022-10-18T08:51:17.029Z,7.50
2022-10-18T08:53:55.457Z,8.60
2022-10-18T08:56:24.152Z,10.20
2022-10-18T08:58:51.087Z,11.50
2022-10-18T09:01:35.781Z,11.20
2022-10-18T09:04:21.482Z,9.60
2022-10-18T09:06:57.249Z,9.10
2022-10-18T09:09:39.488Z,8.20
2022-10-18T09:12:31.051Z,10.60
2022-10-18T09:15:15.589Z,9.40
2022-10-18T09:18:03.718Z,15.90
2022-10-18T09:20:39.467Z,7.20
2022-10-18T09:23:21.325Z,13.00
2022-10-18T09:25:55.048Z,8.90
2022-10-18T09:28:37.951Z,13.50
2022-10-18T09:31:16.149Z,8.00
2022-10-18T09:33:51.946Z,17.00
2022-10-18T09:36:26.449Z,7.70
2022-10-18T09:39:01.549Z,9.60
2022-10-18T09:41:37.607Z,12.10
2022-10-18T09:44:19.353Z,10.20
2022-10-18T09:46:51.621Z,10.80
2022-10-18T09:49:25.006Z,15.10
2022-10-18T09:51:53.509Z,9.90
2022-10-18T09:57:26.095Z,9.50
2022-10-18T09:59:52.854Z,12.60
2022-10-18T10:02:22.354Z,12.80
2022-10-18T10:04:55.870Z,14.30
2022-10-18T10:07:31.177Z,14.40
2022-10-18T10:10:04.019Z,12.30
2022-10-18T10:12:34.430Z,7.00
2022-10-18T10:15:13.367Z,11.30
2022-10-18T10:17:39.981Z,36.00
2022-10-18T10:20:22.771Z,23.50
2022-10-18T10:22:51.100Z,20.50
2022-10-18T10:25:34.209Z,16.50
2022-10-18T10:28:14.692Z,18.20
2022-10-18T10:30:42.057Z,17.30
2022-10-18T10:33:35.746Z,8.50
2022-10-18T10:36:15.281Z,14.90
2022-10-18T10:38:42.241Z,12.70
2022-10-18T10:41:27.379Z,9.80
2022-10-18T10:43:54.227Z,27.00
2022-10-18T10:46:22.609Z,14.10
2022-10-18T10:49:15.333Z,10.80
2022-10-18T10:51:43.061Z,9.00
2022-10-18T10:54:14.515Z,8.70
2022-10-18T10:56:56.161Z,7.90
2022-10-18T10:59:25.903Z,9.10
2022-10-18T11:02:14.674Z,8.30
2022-10-18T11:04:42.436Z,9.30
2022-10-18T11:07:16.220Z,17.70
2022-10-18T11:10:02.050Z,11.70
2022-10-18T11:12:42.375Z,10.70
2022-10-18T11:15:18.167Z,6.50
2022-10-18T11:18:00.255Z,11.10
2022-10-18T11:20:56.529Z,10.40
2022-10-18T11:23:31.200Z,11.40
2022-10-18T11:26:14.007Z,10.30
2022-10-18T11:29:05.064Z,10.30
2022-10-18T11:31:31.712Z,42.60
2022-10-18T11:34:19.921Z,20.50
2022-10-18T11:37:29.474Z,11.40
2022-10-18T11:40:25.803Z,11.70
2022-10-18T11:43:30.315Z,10.30
2022-10-18T11:46:15.466Z,9.60
2022-10-18T11:49:03.824Z,6.90
2022-10-18T11:54:36.765Z,7.50
2022-10-18T11:57:13.212Z,9.30
2022-10-18T11:59:49.175Z,14.60
2022-10-18T12:02:43.111Z,8.70
2022-10-18T12:05:23.220Z,10.80
2022-10-18T12:08:18.785Z,7.90
2022-10-18T12:11:04.675Z,11.20
2022-10-18T12:13:42.691Z,10.30
2022-10-18T12:16:10.591Z,6.70
2022-10-18T12:21:25.404Z,13.90
2022-10-18T12:23:57.879Z,8.80
2022-10-18T12:26:27.809Z,9.80
2022-10-18T12:29:19.825Z,19.60
2022-10-18T12:31:59.175Z,8.50
2022-10-18T12:34:28.955Z,7.90
2022-10-18T12:37:07.750Z,9.70
2022-10-18T12:40:11.430Z,11.20
2022-10-18T12:42:44.803Z,26.00
2022-10-18T12:45:17.275Z,13.10
2022-10-18T12:47:44.033Z,7.80
2022-10-18T12:50:38.345Z,12.10
2022-10-18T12:53:11.718Z,13.70
2022-10-18T12:55:40.529Z,16.90
2022-10-18T12:58:13.329Z,9.60
2022-10-18T13:00:42.899Z,9.00
2022-10-18T13:03:10.105Z,10.10
2022-10-18T13:05:53.960Z,22.40
2022-10-18T13:08:33.392Z,15.10
2022-10-18T13:11:09.487Z,22.40
2022-10-18T13:13:58.954Z,9.80
2022-10-18T13:16:47.186Z,9.50
2022-10-18T13:22:10.806Z,13.90
2022-10-18T13:27:35.087Z,9.30
2022-10-18T13:30:17.972Z,13.50
2022-10-18T13:33:05.807Z,8.10
2022-10-18T13:35:57.950Z,10.30
2022-10-18T13:38:33.683Z,11.60
2022-10-18T13:41:15.756Z,11.50
2022-10-18T13:43:52.693Z,14.30
2022-10-18T13:46:21.779Z,10.00
2022-10-18T13:48:54.364Z,16.90
2022-10-18T13:51:46.191Z,9.80
2022-10-18T13:54:31.311Z,8.20
2022-10-18T13:57:13.238Z,9.20
2022-10-18T14:00:14.232Z,8.90
2022-10-18T14:03:16.268Z,8.40
2022-10-18T14:05:50.844Z,15.10
2022-10-18T14:11:09.483Z,11.50
2022-10-18T14:13:45.243Z,11.00
2022-10-18T14:16:34.938Z,15.00
2022-10-18T14:19:42.367Z,20.10
2022-10-18T14:22:23.223Z,15.60
2022-10-18T14:24:53.833Z,13.10
2022-10-18T14:27:21.805Z,17.40
2022-10-18T14:29:49.812Z,22.80
2022-10-18T14:32:28.359Z,13.50
2022-10-18T14:37:42.769Z,12.40
2022-10-18T14:40:25.513Z,16.00
2022-10-18T14:42:52.299Z,18.00
2022-10-18T14:45:20.788Z,26.70
2022-10-18T14:47:50.690Z,22.70
2022-10-18T14:50:25.462Z,18.00
2022-10-18T14:52:54.834Z,22.90
2022-10-18T14:55:25.062Z,19.60
2022-10-18T14:57:51.956Z,14.60
2022-10-18T15:00:27.672Z,15.10
2022-10-18T15:02:54.285Z,11.70
2022-10-18T15:05:24.336Z,10.40
2022-10-18T15:07:53.050Z,11.30
2022-10-18T15:10:24.853Z,16.50
2022-10-18T15:13:09.237Z,15.60
2022-10-18T15:15:37.650Z,19.20
2022-10-18T15:18:06.270Z,23.70
2022-10-18T15:20:41.616Z,19.00
2022-10-18T15:23:30.682Z,33.60
2022-10-18T15:26:11.796Z,37.80
2022-10-18T15:28:53.164Z,33.70
2022-10-18T15:31:32.559Z,29.90
2022-10-18T15:34:19.924Z,35.70
2022-10-18T15:36:48.287Z,45.10
2022-10-18T15:39:21.397Z,43.80
2022-10-18T15:41:59.776Z,46.00
2022-10-18T15:44:34.221Z,44.40
2022-10-18T15:47:13.313Z,54.30
2022-10-18T15:49:45.984Z,48.80
2022-10-18T15:52:38.249Z,47.40
2022-10-18T15:55:30.656Z,42.70
2022-10-18T15:58:31.485Z,39.40
2022-10-18T16:01:02.105Z,38.50
2022-10-18T16:03:35.701Z,42.00
2022-10-18T16:06:07.621Z,44.10
2022-10-18T16:08:40.467Z,40.80
2022-10-18T16:11:13.288Z,47.80
2022-10-18T16:13:40.110Z,64.90
2022-10-18T16:16:10.791Z,58.70
2022-10-18T16:18:37.567Z,51.40
2022-10-18T16:21:04.270Z,33.90
2022-10-18T16:23:30.892Z,44.50
2022-10-18T16:25:57.587Z,63.40
2022-10-18T16:28:25.446Z,60.10
2022-10-18T16:31:00.745Z,58.90
2022-10-18T16:33:27.716Z,49.70
2022-10-18T16:35:54.699Z,58.60
2022-10-18T16:38:34.165Z,59.50
2022-10-18T16:41:04.495Z,58.40
2022-10-18T16:43:31.657Z,55.40
2022-10-18T16:45:58.542Z,54.30
2022-10-18T16:48:25.319Z,61.20
2022-10-18T16:50:54.793Z,61.10
2022-10-18T16:53:24.402Z,64.90
2022-10-18T16:56:01.828Z,59.30
2022-10-18T16:58:30.641Z,60.60
2022-10-18T17:00:58.874Z,66.50
2022-10-18T17:05:53.558Z,48.00
2022-10-18T17:08:26.229Z,43.40
2022-10-18T17:10:56.954Z,43.70
2022-10-18T17:13:25.256Z,49.20
2022-10-18T17:15:52.781Z,50.50
2022-10-18T17:18:22.347Z,66.90
2022-10-18T17:20:49.506Z,44.10
2022-10-18T17:23:16.145Z,57.80
2022-10-18T17:25:57.367Z,52.90
2022-10-18T17:28:30.825Z,52.30
2022-10-18T17:30:57.674Z,46.10
2022-10-18T17:33:24.346Z,53.20
2022-10-18T17:35:51.207Z,52.60
2022-10-18T17:38:17.899Z,66.20
2022-10-18T17:40:44.502Z,76.40
2022-10-18T17:43:13.240Z,61.00
2022-10-18T17:45:54.191Z,65.80
2022-10-18T17:48:23.303Z,69.00
2022-10-18T17:50:50.299Z,49.00
2022-10-18T17:53:21.896Z,43.20
2022-10-18T17:55:49.056Z,32.10
2022-10-18T17:58:15.907Z,41.40
2022-10-18T18:00:42.554Z,33.20
2022-10-18T18:03:09.310Z,24.50
2022-10-18T18:05:36.135Z,25.20
2022-10-18T18:08:04.090Z,23.10
2022-10-18T18:10:34.138Z,24.70
2022-10-18T18:13:01.909Z,62.60
2022-10-18T18:15:29.289Z,88.10
2022-10-18T18:17:57.366Z,82.10
2022-10-18T18:20:25.947Z,58.50
2022-10-18T18:22:52.685Z,38.70
2022-10-18T18:25:19.488Z,71.00
2022-10-18T18:27:46.035Z,57.70
2022-10-18T18:30:13.753Z,74.30
2022-10-18T18:32:40.432Z,71.80
2022-10-18T18:35:07.495Z,73.00
2022-10-18T18:37:34.213Z,63.80
2022-10-18T18:40:00.833Z,64.50
2022-10-18T18:42:27.557Z,73.40
2022-10-18T18:44:54.178Z,80.90
2022-10-18T18:47:22.788Z,67.00
2022-10-18T18:49:50.887Z,69.00
2022-10-18T18:52:17.657Z,72.20
2022-10-18T18:54:44.569Z,72.80
2022-10-18T18:57:11.254Z,57.80
2022-10-18T18:59:37.862Z,51.40
2022-10-18T19:02:05.066Z,49.30
2022-10-18T19:04:32.165Z,45.70
2022-10-18T19:06:58.836Z,58.70
2022-10-18T19:09:26.818Z,61.20
2022-10-18T19:11:55.758Z,49.60
2022-10-18T19:14:25.220Z,59.40
2022-10-18T19:16:58.237Z,52.40
2022-10-18T19:19:27.794Z,51.10
2022-10-18T19:22:00.236Z,79.10
2022-10-18T19:24:31.871Z,78.90
2022-10-18T19:27:01.777Z,48.40
2022-10-18T19:29:33.966Z,29.90
2022-10-18T19:32:04.290Z,35.40
2022-10-18T19:34:31.975Z,45.00
2022-10-18T19:36:58.632Z,32.40
2022-10-18T19:39:33.795Z,31.40
2022-10-18T19:42:03.853Z,33.80
2022-10-18T19:44:32.473Z,29.60
2022-10-18T19:46:59.595Z,26.80
2022-10-18T19:49:28.281Z,22.80
2022-10-18T19:54:23.603Z,28.00
2022-10-18T19:56:50.557Z,36.20
2022-10-18T19:59:17.285Z,30.20
2022-10-18T20:01:44.846Z,34.80
2022-10-18T20:04:12.849Z,28.80
2022-10-18T20:06:40.746Z,32.30
2022-10-18T20:09:09.547Z,30.70
2022-10-18T20:14:04.970Z,35.30
2022-10-18T20:16:33.208Z,29.10
2022-10-18T20:19:02.060Z,30.00
2022-10-18T20:23:56.269Z,34.80
2022-10-18T20:26:24.787Z,37.20
2022-10-18T20:31:30.858Z,33.30
2022-10-18T20:34:00.231Z,32.90
2022-10-18T20:36:29.418Z,32.60
2022-10-18T20:38:57.306Z,36.30
2022-10-18T20:41:27.539Z,38.20
2022-10-18T20:43:56.594Z,42.30
2022-10-18T20:46:24.330Z,38.60
2022-10-18T20:48:52.154Z,30.90
2022-10-18T20:51:19.947Z,40.90
2022-10-18T20:53:46.703Z,34.90
2022-10-18T20:56:21.757Z,35.30
2022-10-18T20:58:50.727Z,31.40
2022-10-18T21:01:20.304Z,35.90
2022-10-18T21:03:48.598Z,36.80
2022-10-18T21:06:27.005Z,43.30
2022-10-18T21:09:01.745Z,41.50
2022-10-18T21:11:30.269Z,39.90
2022-10-18T21:14:01.994Z,40.20
2022-10-18T21:16:30.341Z,37.40
2022-10-18T21:19:04.829Z,36.60
2022-10-18T21:21:31.750Z,38.10
2022-10-18T21:24:01.194Z,37.60
2022-10-18T21:26:30.695Z,38.70
2022-10-18T21:28:59.120Z,35.00
2022-10-18T21:31:31.884Z,39.30
2022-10-18T21:34:01.155Z,39.50
2022-10-18T21:36:31.854Z,31.90
2022-10-18T21:38:58.556Z,20.90
2022-10-18T21:41:25.480Z,18.80
2022-10-18T21:43:54.320Z,24.00
2022-10-18T21:48:52.016Z,18.70
2022-10-18T21:51:20.622Z,18.50
2022-10-18T21:53:49.931Z,18.00
2022-10-18T21:56:22.144Z,24.40
2022-10-18T21:58:49.163Z,19.50
2022-10-18T22:01:23.237Z,23.00
2022-10-18T22:03:51.991Z,27.10
2022-10-18T22:06:20.329Z,21.30
2022-10-18T22:08:52.780Z,22.50
2022-10-18T22:11:23.143Z,21.70
2022-10-18T22:13:49.937Z,26.30
2022-10-18T22:16:16.852Z,19.90
2022-10-18T22:18:46.629Z,16.90
2022-10-18T22:21:15.701Z,15.30
2022-10-18T22:23:48.592Z,16.30
2022-10-18T22:26:19.561Z,17.20
2022-10-18T22:28:46.764Z,13.60
2022-10-18T22:31:18.779Z,19.20
2022-10-18T22:33:46.438Z,19.00
2022-10-18T22:36:13.369Z,18.90
2022-10-18T22:38:40.128Z,16.40
2022-10-18T22:41:09.025Z,28.80
2022-10-18T22:43:36.087Z,17.70
2022-10-18T22:46:05.881Z,17.30
2022-10-18T22:48:33.392Z,21.60
2022-10-18T22:51:00.822Z,21.80
2022-10-18T22:53:27.825Z,25.20
2022-10-18T22:55:54.718Z,23.70
2022-10-18T22:58:21.747Z,15.10
2022-10-18T23:00:48.560Z,16.30
2022-10-18T23:03:18.625Z,20.70
2022-10-18T23:05:46.373Z,16.30
2022-10-18T23:08:13.993Z,20.00
2022-10-18T23:10:42.054Z,15.40
2022-10-18T23:13:10.130Z,16.40
2022-10-18T23:15:38.527Z,13.30
2022-10-18T23:18:05.514Z,16.30
2022-10-18T23:20:32.079Z,23.00
2022-10-18T23:22:58.666Z,18.60
2022-10-18T23:25:26.577Z,17.60
2022-10-18T23:27:53.495Z,12.80
2022-10-18T23:30:20.538Z,14.30
2022-10-18T23:32:47.299Z,17.80
2022-10-18T23:35:13.964Z,13.70
2022-10-18T23:37:40.538Z,15.60
2022-10-18T23:40:08.745Z,18.90
2022-10-18T23:42:35.278Z,18.90
2022-10-18T23:45:02.139Z,17.20
2022-10-18T23:47:28.755Z,17.90
2022-10-18T23:49:56.715Z,14.90
2022-10-18T23:52:24.337Z,15.60
2022-10-18T23:54:50.991Z,12.20
2022-10-18T23:57:17.525Z,11.10
2022-10-18T23:59:44.090Z,9.10
